Time;durP1;ratioP1;P1;durP2;ratioP2;P2;SDS_P1;SDS_P2;PMS_P1;PMS_P2;Temp;Humidity;BMP_temperature;BMP_pressure;BME280_temperature;BME280_humidity;BME280_pressure;Samples;Min_cycle;Max_cycle;Signal;HPM_P1;HPM_P2
2022/09/07 00:00:42;;;;;;;10.52;5.53;;;;;;;22.25;55.69;98831.38;4487022;32;20092;-86
2022/09/07 00:03:08;;;;;;;10.77;5.47;;;;;;;22.24;55.66;98829.66;4487086;32;20115;-85
2022/09/07 00:05:40;;;;;;;13.15;6.22;;;;;;;22.24;55.71;98833.19;4487116;32;20123;-85
2022/09/07 00:08:05;;;;;;;12.27;6.15;;;;;;;22.21;55.78;98825.44;4487126;32;20133;-85
2022/09/07 00:10:31;;;;;;;12.00;6.18;;;;;;;22.17;55.90;98824.94;4487003;32;20127;-85
2022/09/07 00:12:56;;;;;;;11.18;6.43;;;;;;;22.03;56.37;98828.16;4487018;32;20365;-85
2022/09/07 00:15:22;;;;;;;13.60;6.95;;;;;;;22.08;56.21;98828.56;4486957;32;20126;-85
2022/09/07 00:17:47;;;;;;;12.85;7.50;;;;;;;21.98;56.64;98825.97;4486794;32;20429;-84
2022/09/07 00:20:13;;;;;;;13.13;7.15;;;;;;;21.61;57.83;98834.16;4486892;32;20584;-85
2022/09/07 00:22:39;;;;;;;13.15;7.15;;;;;;;21.60;57.79;98822.59;4486929;32;20096;-85
2022/09/07 00:25:05;;;;;;;11.68;6.35;;;;;;;21.65;57.74;98819.47;4487186;32;20088;-85
2022/09/07 00:27:30;;;;;;;11.55;6.40;;;;;;;21.80;57.14;98811.72;4472920;32;20093;-85
2022/09/07 00:29:56;;;;;;;12.32;7.12;;;;;;;21.90;56.82;98814.31;4487085;32;20100;-84
2022/09/07 00:32:21;;;;;;;11.68;6.50;;;;;;;21.69;57.49;98823.53;4487167;32;20164;-85
2022/09/07 00:34:49;;;;;;;11.45;6.50;;;;;;;21.68;57.66;98807.59;4472748;32;20169;-85
2022/09/07 00:37:14;;;;;;;12.07;7.00;;;;;;;21.79;57.16;98808.19;4486489;32;20451;-85
2022/09/07 00:39:40;;;;;;;11.63;7.05;;;;;;;21.73;57.51;98811.50;4472824;32;20218;-85
2022/09/07 00:42:05;;;;;;;12.95;6.40;;;;;;;21.80;57.15;98803.69;4486882;32;20097;-85
2022/09/07 00:44:43;;;;;;;14.05;8.07;;;;;;;21.80;57.12;98806.34;4486906;32;20095;-85
2022/09/07 00:47:17;;;;;;;12.48;7.35;;;;;;;21.81;57.37;98808.06;4486726;32;20172;-87
2022/09/07 00:49:46;;;;;;;12.32;6.90;;;;;;;21.83;57.28;98808.75;4486730;32;20096;-87
2022/09/07 00:52:13;;;;;;;13.77;6.75;;;;;;;21.85;57.15;98812.09;4486872;32;20373;-87
2022/09/07 00:54:48;;;;;;;12.37;6.85;;;;;;;21.64;58.00;98819.63;4486824;32;20119;-87
2022/09/07 00:57:14;;;;;;;13.43;7.78;;;;;;;21.69;57.74;98811.94;4472322;32;20114;-85
2022/09/07 00:59:46;;;;;;;13.85;8.40;;;;;;;21.72;57.69;98815.16;4472672;32;20118;-85
2022/09/07 01:02:12;;;;;;;15.68;9.00;;;;;;;21.77;57.81;98807.50;4486866;32;20469;-85
2022/09/07 01:04:38;;;;;;;13.38;8.20;;;;;;;21.68;58.23;98805.75;4472204;32;20432;-84
2022/09/07 01:07:04;;;;;;;12.18;7.10;;;;;;;21.72;58.12;98811.66;4486407;32;20149;-84
2022/09/07 01:09:30;;;;;;;12.45;7.50;;;;;;;21.68;58.18;98808.44;4486297;32;20202;-84
2022/09/07 01:11:58;;;;;;;12.95;7.72;;;;;;;21.65;58.29;98806.06;4486356;32;20440;-83
2022/09/07 01:14:35;;;;;;;14.38;8.77;;;;;;;21.67;58.17;98809.44;4472349;32;20352;-84
2022/09/07 01:17:31;;;;;;;13.23;8.35;;;;;;;21.66;58.39;98813.13;4472077;32;20165;-84
2022/09/07 01:19:56;;;;;;;15.95;9.20;;;;;;;21.71;58.28;98797.41;4486183;32;20084;-84
2022/09/07 01:22:46;;;;;;;13.90;9.05;;;;;;;21.50;59.00;98804.91;4486115;32;20165;-86
2022/09/07 01:25:21;;;;;;;15.13;8.73;;;;;;;21.58;58.88;98807.69;4472071;32;20088;-85
2022/09/07 01:28:12;;;;;;;14.27;8.30;;;;;;;21.56;58.92;98807.84;4471831;32;20080;-85
2022/09/07 01:30:41;;;;;;;15.00;8.82;;;;;;;21.59;58.79;98799.50;4471880;32;20104;-86
2022/09/07 01:33:21;;;;;;;15.38;9.18;;;;;;;21.44;59.37;98802.84;4471846;32;20227;-86
2022/09/07 01:36:08;;;;;;;17.75;9.73;;;;;;;21.33;59.88;98798.53;4486065;32;20156;-86
2022/09/07 01:38:46;;;;;;;15.63;9.32;;;;;;;21.18;60.33;98798.19;4486326;32;20180;-86
2022/09/07 01:41:22;;;;;;;15.05;8.60;;;;;;;21.39;59.58;98798.75;4486207;32;20169;-86
2022/09/07 01:44:07;;;;;;;15.23;9.70;;;;;;;21.47;59.17;98799.88;4458597;32;20096;-86
2022/09/07 01:46:36;;;;;;;14.05;9.32;;;;;;;21.46;59.24;98785.62;4471612;32;20507;-85
2022/09/07 01:49:22;;;;;;;12.85;8.20;;;;;;;21.43;59.44;98790.41;4487516;32;20112;-85
2022/09/07 01:51:52;;;;;;;15.10;9.00;;;;;;;21.45;59.28;98783.09;4473820;32;20574;-85
2022/09/07 01:54:20;;;;;;;15.30;9.13;;;;;;;21.44;59.15;98779.59;4487931;32;20095;-86
2022/09/07 01:56:48;;;;;;;15.70;10.02;;;;;;;21.44;59.12;98776.03;4473575;32;20110;-86
2022/09/07 01:59:37;;;;;;;15.50;10.05;;;;;;;21.43;59.22;98783.22;4487873;32;20667;-86
2022/09/07 02:02:08;;;;;;;16.45;10.00;;;;;;;21.36;59.59;98780.31;4473672;32;20123;-86
2022/09/07 02:04:44;;;;;;;17.05;9.93;;;;;;;21.27;59.85;98775.03;4473612;32;20087;-86
2022/09/07 02:07:23;;;;;;;16.98;9.80;;;;;;;20.89;61.13;98790.34;4473766;32;20111;-86
2022/09/07 02:10:07;;;;;;;15.57;10.40;;;;;;;21.09;60.48;98788.38;4487818;32;20102;-86
2022/09/07 02:12:39;;;;;;;14.90;9.20;;;;;;;20.83;61.43;98783.75;4487855;32;20101;-86
2022/09/07 02:15:15;;;;;;;15.18;9.10;;;;;;;21.07;60.50;98776.97;4487911;32;20456;-86
2022/09/07 02:17:44;;;;;;;18.70;11.15;;;;;;;21.17;59.98;98777.75;4473492;32;20792;-86
2022/09/07 02:20:30;;;;;;;17.23;10.40;;;;;;;20.99;60.44;98773.22;4473642;32;20434;-86
2022/09/07 02:22:58;;;;;;;20.35;11.12;;;;;;;20.92;60.82;98779.31;4487806;32;20096;-86
2022/09/07 02:25:32;;;;;;;17.60;11.68;;;;;;;20.72;61.33;98778.59;4473545;32;20108;-86
2022/09/07 02:28:13;;;;;;;18.20;11.52;;;;;;;20.93;60.68;98781.03;4460464;32;20092;-86
2022/09/07 02:30:38;;;;;;;14.93;9.52;;;;;;;20.88;60.77;98776.13;4473506;32;20084;-86
2022/09/07 02:33:04;;;;;;;15.63;9.98;;;;;;;20.88;60.63;98778.81;4473533;32;20128;-86
2022/09/07 02:35:30;;;;;;;15.75;10.45;;;;;;;20.97;60.38;98767.16;4487619;32;20155;-86
2022/09/07 02:37:55;;;;;;;17.25;9.93;;;;;;;21.06;60.01;98769.97;4487663;32;20092;-86
2022/09/07 02:40:21;;;;;;;15.80;9.35;;;;;;;21.05;59.97;98760.22;4473217;32;20092;-85
2022/09/07 02:42:49;;;;;;;14.15;9.38;;;;;;;21.17;59.45;98759.88;4487630;32;20119;-85
2022/09/07 02:45:15;;;;;;;15.27;9.05;;;;;;;21.17;59.48;98761.69;4473420;32;20112;-84
2022/09/07 02:47:50;;;;;;;13.80;8.77;;;;;;;21.25;59.16;98756.44;4473584;32;20160;-85
2022/09/07 02:50:34;;;;;;;16.85;10.57;;;;;;;21.25;59.23;98755.56;4487542;32;20084;-85
2022/09/07 02:53:30;;;;;;;15.63;10.35;;;;;;;21.09;59.47;98759.75;4487575;32;20097;-85
2022/09/07 02:56:29;;;;;;;15.55;9.57;;;;;;;21.07;59.46;98751.03;4487598;32;20816;-84
2022/09/07 02:59:05;;;;;;;17.40;11.07;;;;;;;21.02;59.61;98754.19;4487460;32;20118;-85
2022/09/07 03:01:46;;;;;;;17.73;11.05;;;;;;;20.89;59.93;98748.34;4487868;32;20075;-84
2022/09/07 03:04:17;;;;;;;16.67;10.07;;;;;;;20.87;59.97;98747.66;4473304;32;20112;-85
2022/09/07 03:06:51;;;;;;;21.23;13.52;;;;;;;20.73;60.58;98750.84;4487652;32;20088;-84
2022/09/07 03:09:22;;;;;;;21.40;15.05;;;;;;;20.62;60.93;98752.72;4473258;32;20092;-84
2022/09/07 03:11:48;;;;;;;17.85;12.45;;;;;;;20.44;61.06;98749.13;4473094;32;20088;-85
2022/09/07 03:14:23;;;;;;;19.50;12.50;;;;;;;20.53;60.86;98745.56;4473106;32;20413;-85
2022/09/07 03:16:52;;;;;;;19.75;12.35;;;;;;;20.40;61.42;98748.56;4473172;32;20621;-84
2022/09/07 03:19:18;;;;;;;20.77;13.75;;;;;;;20.49;61.02;98748.66;4487394;32;20092;-85
2022/09/07 03:21:43;;;;;;;20.42;13.62;;;;;;;20.22;61.99;98744.97;4473086;32;20117;-84
2022/09/07 03:24:09;;;;;;;19.50;13.30;;;;;;;20.63;60.50;98742.87;4459863;32;20120;-85
2022/09/07 03:26:39;;;;;;;21.08;13.55;;;;;;;20.57;60.58;98744.28;4487323;32;20092;-84
2022/09/07 03:29:04;;;;;;;20.50;12.60;;;;;;;20.65;60.16;98750.72;4473013;32;20092;-84
2022/09/07 03:31:31;;;;;;;18.90;12.98;;;;;;;20.80;59.66;98750.09;4487334;32;20098;-85
2022/09/07 03:33:57;;;;;;;19.98;12.98;;;;;;;20.66;59.98;98744.41;4487378;32;20484;-84
2022/09/07 03:36:22;;;;;;;20.95;12.95;;;;;;;20.80;59.53;98747.41;4487205;32;20100;-82
2022/09/07 03:38:48;;;;;;;20.50;12.88;;;;;;;20.55;59.86;98745.38;4487393;32;20088;-83
2022/09/07 03:41:13;;;;;;;18.30;11.77;;;;;;;20.80;59.11;98746.56;4487268;32;20120;-84
2022/09/07 03:43:39;;;;;;;17.95;12.00;;;;;;;20.57;59.87;98749.63;4487239;32;20119;-84
2022/09/07 03:46:06;;;;;;;19.20;12.32;;;;;;;20.72;59.28;98755.34;4487219;32;20116;-83
2022/09/07 03:48:33;;;;;;;20.48;12.43;;;;;;;20.60;59.53;98764.56;4473133;32;20465;-83
2022/09/07 03:51:09;;;;;;;19.13;12.70;;;;;;;20.41;60.33;98766.28;4473226;32;20108;-83
2022/09/07 03:53:38;;;;;;;21.52;14.45;;;;;;;20.28;60.80;98763.12;4487389;32;20524;-83
2022/09/07 03:56:06;;;;;;;21.30;13.68;;;;;;;20.45;60.09;98758.81;4473124;32;20131;-86
2022/09/07 03:58:32;;;;;;;20.05;13.50;;;;;;;20.16;60.90;98764.28;4487209;32;20115;-85
2022/09/07 04:00:59;;;;;;;22.23;14.40;;;;;;;20.49;59.87;98768.22;4487406;32;20089;-83
2022/09/07 04:03:24;;;;;;;20.85;13.02;;;;;;;20.42;59.99;98773.34;4473158;32;20762;-83
2022/09/07 04:05:50;;;;;;;23.17;14.77;;;;;;;20.49;59.90;98773.59;4487332;32;20152;-83
2022/09/07 04:08:15;;;;;;;22.75;15.18;;;;;;;20.52;59.67;98775.97;4473062;32;20136;-83
2022/09/07 04:10:41;;;;;;;22.37;14.73;;;;;;;20.28;60.57;98778.31;4486255;32;20101;-83
2022/09/07 04:13:07;;;;;;;23.45;15.63;;;;;;;20.47;59.93;98777.41;4472797;32;20136;-83
2022/09/07 04:15:32;;;;;;;25.88;16.92;;;;;;;20.56;59.54;98784.56;4486941;32;20100;-85
2022/09/07 04:17:58;;;;;;;24.20;15.90;;;;;;;20.45;59.78;98769.53;4472596;32;20120;-85
2022/09/07 04:20:24;;;;;;;23.55;16.20;;;;;;;20.23;60.57;98776.09;4486926;32;20630;-84
2022/09/07 04:22:49;;;;;;;24.02;16.27;;;;;;;20.32;60.04;98772.53;4472751;32;20109;-84
2022/09/07 04:25:15;;;;;;;21.95;14.13;;;;;;;20.31;60.18;98776.19;4486682;32;20470;-85
2022/09/07 04:27:41;;;;;;;21.80;14.10;;;;;;;20.20;60.53;98771.88;4472667;32;20431;-84
2022/09/07 04:30:07;;;;;;;20.83;13.57;;;;;;;20.38;59.96;98776.47;4486697;32;20432;-85
2022/09/07 04:32:32;;;;;;;20.23;13.80;;;;;;;20.45;59.47;98774.87;4486724;32;20104;-85
2022/09/07 04:34:58;;;;;;;21.98;14.35;;;;;;;20.36;59.56;98779.28;4486807;32;20095;-85
2022/09/07 04:37:23;;;;;;;19.20;12.65;;;;;;;20.15;60.02;98778.66;4472232;32;20088;-85
2022/09/07 04:39:49;;;;;;;16.98;11.00;;;;;;;20.43;59.72;98776.84;4486681;32;20080;-85
2022/09/07 04:42:14;;;;;;;17.62;10.65;;;;;;;20.60;59.04;98777.94;4486675;32;20161;-85
2022/09/07 04:44:39;;;;;;;17.42;10.63;;;;;;;20.70;58.63;98780.56;4486618;32;20088;-85
2022/09/07 04:47:05;;;;;;;15.13;9.65;;;;;;;20.61;58.73;98787.69;4486697;32;20115;-84
2022/09/07 04:49:31;;;;;;;15.00;9.48;;;;;;;20.82;58.10;98790.09;4486494;32;20084;-84
2022/09/07 04:51:56;;;;;;;16.98;10.07;;;;;;;20.91;57.78;98791.88;4486588;32;20473;-84
2022/09/07 04:54:21;;;;;;;18.02;9.45;;;;;;;20.91;57.64;98788.38;4486520;32;20092;-84
2022/09/07 04:56:47;;;;;;;15.07;9.10;;;;;;;20.81;57.85;98791.09;4486422;32;20111;-84
2022/09/07 04:59:12;;;;;;;14.43;9.13;;;;;;;20.80;57.84;98792.06;4486377;32;20077;-84
2022/09/07 05:01:38;;;;;;;16.05;9.00;;;;;;;21.09;57.01;98788.38;4488305;31;20380;-85
2022/09/07 05:04:04;;;;;;;14.70;7.70;;;;;;;21.20;56.83;98794.38;4494441;31;20407;-83
2022/09/07 05:06:29;;;;;;;13.10;8.23;;;;;;;21.31;56.54;98785.28;4479619;32;20091;-82
2022/09/07 05:08:54;;;;;;;14.65;8.48;;;;;;;21.66;55.37;98783.63;4486322;32;20085;-82
2022/09/07 05:11:23;;;;;;;13.38;8.20;;;;;;;21.38;56.08;98789.03;4477743;31;20375;-82
2022/09/07 05:13:49;;;;;;;13.73;7.82;;;;;;;21.18;56.51;98791.00;4479358;31;20091;-82
2022/09/07 05:16:17;;;;;;;14.07;7.78;;;;;;;21.53;55.46;98788.53;4480664;31;20136;-84
2022/09/07 05:18:43;;;;;;;13.13;7.45;;;;;;;21.52;55.28;98790.38;4494739;31;20118;-82
2022/09/07 05:21:14;;;;;;;13.20;7.53;;;;;;;21.79;54.42;98788.59;4489560;31;20151;-82
2022/09/07 05:23:40;;;;;;;13.80;7.65;;;;;;;21.69;54.63;98790.50;4481699;31;20116;-82
2022/09/07 05:26:06;;;;;;;13.55;7.93;;;;;;;21.63;54.77;98796.50;4480171;31;20092;-83
2022/09/07 05:28:33;;;;;;;13.60;7.97;;;;;;;21.96;54.00;98792.22;4496014;31;20448;-83
2022/09/07 05:31:10;;;;;;;13.77;7.80;;;;;;;21.72;54.62;98804.44;4494769;31;20099;-81
2022/09/07 05:33:37;;;;;;;12.73;7.33;;;;;;;21.85;54.12;98806.75;4494192;31;20135;-80
2022/09/07 05:36:04;;;;;;;14.87;7.78;;;;;;;21.84;54.52;98806.88;4481642;31;20640;-80
2022/09/07 05:38:32;;;;;;;13.13;6.72;;;;;;;21.84;54.63;98807.72;4479760;31;20126;-84
2022/09/07 05:40:58;;;;;;;12.43;6.90;;;;;;;22.36;53.41;98804.28;4480946;31;20116;-82
2022/09/07 05:43:23;;;;;;;12.63;7.60;;;;;;;22.57;52.99;98799.34;4493726;31;20122;-82
2022/09/07 05:45:49;;;;;;;14.27;7.10;;;;;;;22.47;52.79;98804.00;4494075;31;20204;-81
2022/09/07 05:48:14;;;;;;;13.23;7.20;;;;;;;22.69;52.20;98807.97;4487927;31;20411;-81
2022/09/07 05:50:48;;;;;;;13.15;6.97;;;;;;;22.70;51.84;98804.28;4485660;32;20100;-81
2022/09/07 05:53:14;;;;;;;13.18;6.97;;;;;;;22.83;51.88;98809.22;4486413;32;20104;-81
2022/09/07 05:55:39;;;;;;;13.57;7.30;;;;;;;22.73;52.42;98808.47;4486928;32;20080;-81
2022/09/07 05:58:04;;;;;;;11.90;6.97;;;;;;;22.82;51.38;98809.38;4486481;31;20413;-81
2022/09/07 06:00:30;;;;;;;10.95;6.07;;;;;;;23.06;50.53;98812.16;4486367;32;20096;-81
2022/09/07 06:02:56;;;;;;;12.98;7.50;;;;;;;23.27;50.24;98806.34;4487858;31;20084;-81
2022/09/07 06:05:21;;;;;;;13.80;6.72;;;;;;;22.97;50.94;98805.06;4487957;31;20084;-81
2022/09/07 06:07:47;;;;;;;12.18;6.80;;;;;;;23.09;50.78;98809.16;4487909;32;20339;-81
2022/09/07 06:10:12;;;;;;;13.73;7.55;;;;;;;22.77;51.40;98809.84;4487726;31;20161;-81
2022/09/07 06:12:38;;;;;;;14.20;7.07;;;;;;;22.60;51.08;98810.78;4487850;31;20165;-81
2022/09/07 06:15:04;;;;;;;13.32;6.70;;;;;;;22.94;50.41;98811.59;4486568;32;20427;-81
2022/09/07 06:17:30;;;;;;;11.70;6.37;;;;;;;22.98;50.81;98812.13;4486833;32;20107;-81
2022/09/07 06:19:56;;;;;;;12.18;6.32;;;;;;;23.38;50.18;98813.28;4488199;31;20096;-81
2022/09/07 06:22:21;;;;;;;11.65;5.78;;;;;;;23.57;49.66;98805.91;4487948;31;20088;-81
2022/09/07 06:24:47;;;;;;;12.15;6.72;;;;;;;23.68;49.24;98814.50;4488050;31;20162;-81
2022/09/07 06:27:12;;;;;;;13.32;6.55;;;;;;;23.79;48.82;98807.13;4487861;31;20135;-81
2022/09/07 06:29:38;;;;;;;11.02;6.25;;;;;;;23.87;48.08;98815.19;4487908;31;20119;-81
2022/09/07 06:32:03;;;;;;;13.55;7.70;;;;;;;23.90;48.40;98807.62;4487975;31;20121;-81
2022/09/07 06:34:29;;;;;;;12.05;6.85;;;;;;;23.82;48.02;98807.62;4487399;31;20061;-81
2022/09/07 06:36:55;;;;;;;13.98;7.22;;;;;;;23.84;48.32;98811.00;4486591;32;20110;-81
2022/09/07 06:39:20;;;;;;;11.57;6.50;;;;;;;23.61;48.91;98807.25;4486443;32;20459;-81
2022/09/07 06:41:46;;;;;;;13.90;7.20;;;;;;;22.88;51.30;98808.72;4487541;31;20185;-81
2022/09/07 06:44:11;;;;;;;14.38;6.47;;;;;;;23.05;50.23;98805.13;4487611;31;20118;-81
2022/09/07 06:46:37;;;;;;;11.77;6.45;;;;;;;23.48;49.71;98794.28;4486345;32;20119;-81
2022/09/07 06:49:03;;;;;;;14.73;7.43;;;;;;;23.77;48.95;98795.66;4487598;31;20097;-81
2022/09/07 06:51:29;;;;;;;13.05;6.55;;;;;;;23.80;48.75;98803.41;4487649;31;20095;-81
2022/09/07 06:53:55;;;;;;;14.05;7.20;;;;;;;23.96;48.52;98802.59;4487771;31;20092;-81
2022/09/07 06:56:21;;;;;;;12.27;6.40;;;;;;;23.81;48.53;98805.09;4487835;31;20080;-81
2022/09/07 06:58:46;;;;;;;13.77;8.00;;;;;;;23.62;49.33;98801.69;4486546;32;20410;-81
2022/09/07 07:01:16;;;;;;;14.45;7.10;;;;;;;23.12;50.72;98802.59;4487856;31;20085;-81
2022/09/07 07:03:43;;;;;;;12.27;6.62;;;;;;;23.75;49.23;98799.34;4486355;32;20443;-81
2022/09/07 07:06:09;;;;;;;12.68;7.35;;;;;;;23.92;49.02;98800.22;4487546;31;20072;-81
2022/09/07 07:08:35;;;;;;;12.30;7.50;;;;;;;24.21;48.14;98806.94;4486314;32;20151;-82
2022/09/07 07:11:02;;;;;;;12.80;7.30;;;;;;;24.08;48.26;98799.38;4487501;31;20439;-81
2022/09/07 07:13:28;;;;;;;12.75;6.72;;;;;;;23.93;48.58;98801.06;4486200;32;20120;-81
2022/09/07 07:16:01;;;;;;;11.02;5.70;;;;;;;24.28;48.01;98809.75;4487521;32;20092;-81
2022/09/07 07:18:26;;;;;;;14.95;6.50;;;;;;;24.60;47.40;98802.66;4487258;31;20111;-81
2022/09/07 07:20:52;;;;;;;14.70;7.37;;;;;;;24.72;46.68;98802.13;4487503;31;20088;-81
2022/09/07 07:23:17;;;;;;;13.13;7.10;;;;;;;24.65;46.48;98801.12;4487535;31;20447;-81
2022/09/07 07:25:43;;;;;;;12.52;7.15;;;;;;;24.58;46.81;98807.38;4487384;31;20219;-81
2022/09/07 07:28:08;;;;;;;13.30;6.62;;;;;;;24.77;46.71;98804.28;4487496;31;20100;-81
2022/09/07 07:30:34;;;;;;;14.30;6.20;;;;;;;24.88;46.28;98808.47;4487298;31;20119;-81
2022/09/07 07:32:59;;;;;;;13.62;7.07;;;;;;;25.07;46.05;98809.88;4486106;32;20077;-81
2022/09/07 07:35:25;;;;;;;13.55;6.87;;;;;;;25.18;45.79;98803.25;4473008;32;20357;-81
2022/09/07 07:37:52;;;;;;;12.37;7.05;;;;;;;24.89;46.10;98810.97;4487254;31;20118;-82
2022/09/07 07:40:17;;;;;;;12.65;6.90;;;;;;;25.07;45.73;98810.72;4487263;31;20144;-82
2022/09/07 07:42:43;;;;;;;12.30;7.40;;;;;;;25.23;45.33;98809.00;4487193;31;20080;-81
2022/09/07 07:45:09;;;;;;;14.02;7.12;;;;;;;25.32;45.31;98807.91;4486087;31;20088;-82
2022/09/07 07:47:36;;;;;;;13.63;7.33;;;;;;;25.27;45.35;98811.16;4486143;32;20108;-81
2022/09/07 07:50:02;;;;;;;13.18;7.25;;;;;;;25.48;45.14;98806.97;4487282;31;20114;-81
2022/09/07 07:52:35;;;;;;;12.63;6.37;;;;;;;25.51;45.25;98807.44;4487227;31;20156;-81
2022/09/07 07:55:00;;;;;;;14.20;8.07;;;;;;;25.57;45.19;98815.84;4487267;31;20076;-81
2022/09/07 07:57:26;;;;;;;14.00;7.95;;;;;;;25.50;44.81;98802.25;4486938;31;20153;-81
2022/09/07 07:59:52;;;;;;;15.45;8.77;;;;;;;25.62;45.11;98800.78;4487372;31;20136;-81
2022/09/07 08:02:17;;;;;;;14.10;7.47;;;;;;;25.68;44.42;98801.94;4487062;31;20080;-81
2022/09/07 08:04:43;;;;;;;15.68;8.48;;;;;;;25.73;44.77;98799.53;4487111;31;20095;-81
2022/09/07 08:07:10;;;;;;;15.27;7.75;;;;;;;25.81;44.19;98804.03;4472884;32;20124;-81
2022/09/07 08:09:37;;;;;;;;;;;;;;;25.88;44.24;98800.44;4487685;31;20474;-81
2022/09/07 08:12:02;;;;;;;17.70;9.35;;;;;;;26.00;43.84;98805.41;4487542;31;19972;-81
2022/09/07 08:14:28;;;;;;;15.32;8.52;;;;;;;25.94;43.91;98812.41;4487171;31;20098;-81
2022/09/07 08:16:53;;;;;;;15.70;8.65;;;;;;;25.85;44.25;98814.28;4487130;31;20116;-81
2022/09/07 08:19:19;;;;;;;13.82;8.80;;;;;;;25.39;45.23;98813.44;4487250;31;20079;-81
2022/09/07 08:21:44;;;;;;;17.33;8.48;;;;;;;25.56;44.70;98812.31;4485840;32;20162;-81
2022/09/07 08:24:09;;;;;;;13.43;8.07;;;;;;;25.21;45.45;98817.22;4485842;32;20114;-81
2022/09/07 08:26:35;;;;;;;14.07;7.78;;;;;;;25.56;44.99;98811.47;4486849;31;20209;-81
2022/09/07 08:29:00;;;;;;;15.27;8.57;;;;;;;25.73;44.42;98806.78;4486945;31;20088;-82
2022/09/07 08:31:26;;;;;;;16.27;7.50;;;;;;;25.79;44.16;98804.22;4486891;31;20456;-82
2022/09/07 08:33:51;;;;;;;12.70;7.32;;;;;;;25.83;44.19;98800.12;4485649;32;20136;-81
2022/09/07 08:36:18;;;;;;;12.20;6.72;;;;;;;25.93;44.16;98794.50;4486756;32;20157;-81
2022/09/07 08:38:44;;;;;;;14.65;7.85;;;;;;;26.04;44.39;98793.25;4485726;32;20088;-81
2022/09/07 08:41:36;;;;;;;12.70;7.12;;;;;;;25.94;44.29;98787.25;4486816;31;20114;-81
2022/09/07 08:44:09;;;;;;;14.00;7.75;;;;;;;26.21;43.92;98791.19;4422393;32;20171;-81
2022/09/07 08:47:00;;;;;;;12.60;6.65;;;;;;;26.23;43.74;98781.91;4422376;32;20098;-81
2022/09/07 08:49:47;;;;;;;12.88;7.20;;;;;;;26.20;44.17;98787.66;4422441;32;20113;-81
2022/09/07 08:52:17;;;;;;;14.98;6.87;;;;;;;25.65;45.30;98789.66;4409618;32;20090;-81
2022/09/07 08:54:46;;;;;;;12.85;7.30;;;;;;;25.92;44.97;98792.00;4422375;32;20326;-81
2022/09/07 08:57:15;;;;;;;15.38;7.95;;;;;;;25.94;44.47;98785.41;4408908;32;20169;-81
2022/09/07 09:00:07;;;;;;;14.98;7.32;;;;;;;26.16;43.68;98789.06;4409619;32;20113;-81
2022/09/07 09:02:33;;;;;;;14.60;8.20;;;;;;;26.23;43.52;98786.44;4422593;32;20081;-81
2022/09/07 09:04:58;;;;;;;14.15;7.60;;;;;;;26.14;43.37;98785.72;4422351;32;20172;-81
2022/09/07 09:07:39;;;;;;;13.98;8.57;;;;;;;26.07;43.71;98782.06;4409443;32;20121;-81
2022/09/07 09:10:33;;;;;;;14.30;7.03;;;;;;;25.70;44.22;98783.72;4409595;32;20117;-81
2022/09/07 09:13:04;;;;;;;15.38;7.25;;;;;;;25.84;44.44;98780.19;4419708;32;20200;-81
2022/09/07 09:15:35;;;;;;;14.60;6.93;;;;;;;26.14;43.55;98779.47;4409202;32;20473;-81
2022/09/07 09:18:06;;;;;;;13.77;6.70;;;;;;;25.69;44.83;98790.09;4422025;32;20106;-81
2022/09/07 09:20:52;;;;;;;13.98;7.55;;;;;;;26.11;44.04;98788.75;4441865;32;20160;-81
2022/09/07 09:23:20;;;;;;;12.95;7.37;;;;;;;26.25;43.50;98790.66;4485070;32;20364;-81
2022/09/07 09:25:58;;;;;;;12.75;6.35;;;;;;;26.39;43.39;98778.19;4485168;32;20491;-81
2022/09/07 09:28:23;;;;;;;12.07;7.45;;;;;;;26.50;42.96;98782.28;4485282;32;20103;-82
2022/09/07 09:30:49;;;;;;;15.18;7.97;;;;;;;25.82;44.50;98786.81;4485117;32;20239;-82
2022/09/07 09:33:24;;;;;;;12.30;7.45;;;;;;;26.32;43.50;98779.94;4486366;31;20112;-81
2022/09/07 09:35:52;;;;;;;13.52;8.25;;;;;;;26.29;43.29;98774.94;4485121;32;20084;-81
2022/09/07 09:38:42;;;;;;;14.60;6.87;;;;;;;25.74;44.19;98771.53;4485098;32;20160;-81
2022/09/07 09:41:11;;;;;;;13.77;6.93;;;;;;;26.16;44.27;98772.88;4486207;31;20101;-81
2022/09/07 09:43:42;;;;;;;11.77;6.70;;;;;;;26.42;42.88;98772.41;4485890;32;20161;-81
2022/09/07 09:46:21;;;;;;;13.65;7.53;;;;;;;26.47;42.64;98778.09;4484665;32;20193;-81
2022/09/07 09:48:59;;;;;;;13.75;6.75;;;;;;;26.65;42.33;98768.81;4486035;31;20104;-81
2022/09/07 09:51:26;;;;;;;12.70;7.20;;;;;;;26.71;42.55;98762.62;4484818;32;20123;-81
2022/09/07 09:53:57;;;;;;;14.95;7.82;;;;;;;26.80;42.18;98760.69;4484787;32;20129;-81
2022/09/07 09:56:35;;;;;;;12.23;6.25;;;;;;;26.63;42.54;98762.75;4485727;31;20519;-81
2022/09/07 09:59:31;;;;;;;11.95;6.80;;;;;;;26.87;42.18;98754.34;4485659;31;20115;-81
2022/09/07 10:01:57;;;;;;;12.98;6.28;;;;;;;27.01;41.60;98758.03;4468411;32;20100;-82
2022/09/07 10:04:23;;;;;;;11.85;7.07;;;;;;;27.02;41.23;98761.56;4484762;32;20091;-81
2022/09/07 10:06:53;;;;;;;14.63;7.78;;;;;;;26.76;41.97;98771.03;4485490;32;20106;-81
2022/09/07 10:09:23;;;;;;;12.48;6.37;;;;;;;26.61;42.03;98759.41;4485697;32;20147;-81
2022/09/07 10:11:58;;;;;;;15.68;7.65;;;;;;;26.81;42.34;98754.25;4487921;31;20379;-81
2022/09/07 10:14:33;;;;;;;12.05;6.68;;;;;;;27.11;41.19;98749.59;4486854;32;20084;-81
2022/09/07 10:16:59;;;;;;;13.57;6.75;;;;;;;27.25;41.63;98751.47;4487737;31;20133;-82
2022/09/07 10:19:30;;;;;;;13.27;7.18;;;;;;;27.45;40.97;98748.12;4487809;31;20236;-81
2022/09/07 10:21:57;;;;;;;13.55;7.60;;;;;;;27.48;40.73;98744.19;4487864;32;20140;-81
2022/09/07 10:24:27;;;;;;;13.82;7.28;;;;;;;27.23;41.52;98742.66;4487885;31;20462;-81
2022/09/07 10:26:53;;;;;;;13.93;7.50;;;;;;;27.64;40.60;98742.06;4486598;32;20127;-81
2022/09/07 10:29:29;;;;;;;12.75;7.15;;;;;;;27.79;40.01;98741.97;4487725;31;20358;-81
2022/09/07 10:32:01;;;;;;;12.25;6.75;;;;;;;28.09;39.76;98738.28;4486552;32;20138;-82
2022/09/07 10:34:48;;;;;;;12.75;7.10;;;;;;;28.27;39.58;98740.47;4487859;31;20419;-82
2022/09/07 10:37:49;;;;;;;13.20;7.20;;;;;;;28.40;38.88;98743.25;4486696;32;20106;-82
2022/09/07 10:40:33;;;;;;;12.23;7.07;;;;;;;28.26;39.18;98744.19;4487701;31;20176;-82
2022/09/07 10:43:15;;;;;;;14.35;6.95;;;;;;;28.23;39.40;98732.72;4487742;31;20096;-81
2022/09/07 10:45:50;;;;;;;14.87;7.25;;;;;;;28.36;39.09;98728.44;4486613;32;20585;-81
2022/09/07 10:48:35;;;;;;;12.77;7.12;;;;;;;28.56;38.66;98723.97;4487593;32;20064;-82
2022/09/07 10:51:09;;;;;;;12.55;7.00;;;;;;;28.38;39.48;98729.06;4487194;32;20187;-81
2022/09/07 10:53:39;;;;;;;11.93;7.10;;;;;;;28.44;39.59;98723.69;4486531;32;20439;-82
2022/09/07 10:56:14;;;;;;;11.90;7.22;;;;;;;28.41;39.16;98723.25;4487648;31;20101;-82
2022/09/07 10:58:58;;;;;;;12.10;7.22;;;;;;;28.28;38.95;98729.44;4486267;32;20161;-82
2022/09/07 11:02:02;;;;;;;13.90;6.82;;;;;;;27.87;39.72;98729.31;4487611;31;20084;-82
2022/09/07 11:04:52;;;;;;;14.32;7.47;;;;;;;28.46;39.03;98722.66;4438756;32;20098;-81
2022/09/07 11:07:24;;;;;;;12.70;7.78;;;;;;;28.34;39.30;98725.94;4425681;32;20093;-81
2022/09/07 11:09:58;;;;;;;13.07;7.55;;;;;;;28.54;38.14;98723.34;4412853;32;20192;-81
2022/09/07 11:12:35;;;;;;;13.52;7.82;;;;;;;28.51;38.12;98717.44;4425789;32;20102;-82
2022/09/07 11:15:12;;;;;;;12.52;7.30;;;;;;;28.44;38.32;98722.84;4425677;32;20113;-81
2022/09/07 11:17:58;;;;;;;13.73;7.50;;;;;;;28.56;37.99;98715.00;4438315;32;20089;-81
2022/09/07 11:20:45;;;;;;;12.63;7.43;;;;;;;28.62;38.08;98711.50;4425413;32;20112;-81
2022/09/07 11:23:33;;;;;;;13.50;9.18;;;;;;;28.67;37.88;98713.63;4438632;32;20128;-81
2022/09/07 11:26:06;;;;;;;13.70;9.20;;;;;;;28.59;37.89;98710.03;4425489;32;20101;-81
2022/09/07 11:28:37;;;;;;;14.95;10.57;;;;;;;28.51;37.77;98706.59;4438445;32;20124;-82
2022/09/07 11:31:07;;;;;;;16.08;10.23;;;;;;;28.41;37.60;98712.41;4438336;32;20503;-82
2022/09/07 11:33:32;;;;;;;15.85;11.10;;;;;;;28.46;37.82;98704.50;4425567;32;20109;-81
2022/09/07 11:36:05;;;;;;;16.23;9.68;;;;;;;28.48;37.42;98697.03;4438252;32;20116;-81
2022/09/07 11:38:34;;;;;;;13.23;8.15;;;;;;;28.52;37.51;98694.78;4425601;32;20109;-81